Current Conditions
Partly Cloudy
Conditions



Pressure
1010.84 (hPa) - 29.85 (inHG)
Visibility

9.7 (km) - 6.0 (miles)
Temperature
14  °C
Temperature
11  °C
Dewpoint
82  %
 Humidity
Wind Speed
14  km/h
8  kts
9  mph
4.0  m/s
Wind Direction
N
45°
E
90°
135°
S
180°
225°
W
270°
315°
 190°

Due South
Airport Data
EHAM
Amsterdam Airport Schiphol
Metar :EHAM 222355Z 19008KT 9999 FEW032 14/11 Q1011 NOSIG
Thu 23rd May 00:55 am
Raw Metar Info
Raw METAR is the most common format in the world for the transmission of observational weather data. It is highly standardized through the International Civil Aviation Organization (ICAO), which allows it to be understood throughout most of the world.
API Info
Data Provided by
https://www.checkwx.com/weather/EHAM

Aviation Weather providing METAR, TAF, AIRMET, SIGMET and OUTLOOK Weather Reports
© Info
CSS/SVG/PHP scripts were developed by weather34.com for use in the weather34 template © 2015-2024

Guide Info provided by Metar-Wikipedia